sensor_id;sensor_type;location;lat;lon;timestamp;temperature;humidity
79065;DHT22;68469;51.502;7.462;2023-07-30T00:01:57;16.90;99.90
79065;DHT22;68469;51.502;7.462;2023-07-30T00:04:23;16.90;99.90
79065;DHT22;68469;51.502;7.462;2023-07-30T00:09:19;16.80;99.90
79065;DHT22;68469;51.502;7.462;2023-07-30T00:11:45;16.80;99.90
79065;DHT22;68469;51.502;7.462;2023-07-30T00:14:10;16.80;99.90
79065;DHT22;68469;51.502;7.462;2023-07-30T00:16:36;16.70;99.90
79065;DHT22;68469;51.502;7.462;2023-07-30T00:19:01;16.70;99.90
79065;DHT22;68469;51.502;7.462;2023-07-30T00:21:27;16.70;99.90
79065;DHT22;68469;51.502;7.462;2023-07-30T00:23:53;16.70;99.90
79065;DHT22;68469;51.502;7.462;2023-07-30T00:26:18;16.60;99.90
79065;DHT22;68469;51.502;7.462;2023-07-30T00:28:44;16.60;99.90
79065;DHT22;68469;51.502;7.462;2023-07-30T00:31:09;16.60;99.90
79065;DHT22;68469;51.502;7.462;2023-07-30T00:33:35;16.60;99.90
79065;DHT22;68469;51.502;7.462;2023-07-30T00:36:00;16.50;99.90
79065;DHT22;68469;51.502;7.462;2023-07-30T00:38:26;16.50;99.90
79065;DHT22;68469;51.502;7.462;2023-07-30T00:40:51;16.50;99.90
79065;DHT22;68469;51.502;7.462;2023-07-30T00:43:17;16.40;99.90
79065;DHT22;68469;51.502;7.462;2023-07-30T00:45:44;16.40;99.90
79065;DHT22;68469;51.502;7.462;2023-07-30T00:48:10;16.40;99.90
79065;DHT22;68469;51.502;7.462;2023-07-30T00:50:37;16.30;99.90
79065;DHT22;68469;51.502;7.462;2023-07-30T00:53:03;16.30;99.90
79065;DHT22;68469;51.502;7.462;2023-07-30T00:55:29;16.20;99.90
79065;DHT22;68469;51.502;7.462;2023-07-30T00:57:56;16.20;99.90
79065;DHT22;68469;51.502;7.462;2023-07-30T01:00:22;16.20;99.90
79065;DHT22;68469;51.502;7.462;2023-07-30T01:02:51;16.10;99.90
79065;DHT22;68469;51.502;7.462;2023-07-30T01:05:16;16.10;99.90
79065;DHT22;68469;51.502;7.462;2023-07-30T01:07:42;16.00;99.90
79065;DHT22;68469;51.502;7.462;2023-07-30T01:10:08;16.00;99.90
79065;DHT22;68469;51.502;7.462;2023-07-30T01:12:34;15.90;99.90
79065;DHT22;68469;51.502;7.462;2023-07-30T01:15:01;15.90;99.90
79065;DHT22;68469;51.502;7.462;2023-07-30T01:17:26;15.80;99.90
79065;DHT22;68469;51.502;7.462;2023-07-30T01:19:55;15.70;99.90
79065;DHT22;68469;51.502;7.462;2023-07-30T01:22:22;15.70;99.90
79065;DHT22;68469;51.502;7.462;2023-07-30T01:24:48;15.70;99.90
79065;DHT22;68469;51.502;7.462;2023-07-30T01:29:52;15.60;99.90
79065;DHT22;68469;51.502;7.462;2023-07-30T01:32:26;15.50;99.90
79065;DHT22;68469;51.502;7.462;2023-07-30T01:34:56;15.50;99.90
79065;DHT22;68469;51.502;7.462;2023-07-30T01:37:22;15.40;99.90
79065;DHT22;68469;51.502;7.462;2023-07-30T01:39:49;15.40;99.90
79065;DHT22;68469;51.502;7.462;2023-07-30T01:42:15;15.40;99.90
79065;DHT22;68469;51.502;7.462;2023-07-30T01:44:41;15.30;99.90
79065;DHT22;68469;51.502;7.462;2023-07-30T01:47:07;15.30;99.90
79065;DHT22;68469;51.502;7.462;2023-07-30T01:49:32;15.30;99.90
79065;DHT22;68469;51.502;7.462;2023-07-30T01:51:58;15.30;99.90
79065;DHT22;68469;51.502;7.462;2023-07-30T01:54:24;15.20;99.90
79065;DHT22;68469;51.502;7.462;2023-07-30T01:56:50;15.20;99.90
79065;DHT22;68469;51.502;7.462;2023-07-30T01:59:15;15.20;99.90
79065;DHT22;68469;51.502;7.462;2023-07-30T02:01:42;15.20;99.90
79065;DHT22;68469;51.502;7.462;2023-07-30T02:04:08;15.20;99.90
79065;DHT22;68469;51.502;7.462;2023-07-30T02:06:34;15.20;99.90
79065;DHT22;68469;51.502;7.462;2023-07-30T02:08:59;15.20;99.90
79065;DHT22;68469;51.502;7.462;2023-07-30T02:11:25;15.10;99.90
79065;DHT22;68469;51.502;7.462;2023-07-30T02:13:50;15.20;99.90
79065;DHT22;68469;51.502;7.462;2023-07-30T02:16:16;15.10;99.90
79065;DHT22;68469;51.502;7.462;2023-07-30T02:18:41;15.10;99.90
79065;DHT22;68469;51.502;7.462;2023-07-30T02:21:07;15.10;99.90
79065;DHT22;68469;51.502;7.462;2023-07-30T02:23:33;15.10;99.90
79065;DHT22;68469;51.502;7.462;2023-07-30T02:25:58;15.10;99.90
79065;DHT22;68469;51.502;7.462;2023-07-30T02:28:24;15.00;99.90
79065;DHT22;68469;51.502;7.462;2023-07-30T02:30:50;15.00;99.90
79065;DHT22;68469;51.502;7.462;2023-07-30T02:33:15;15.00;99.90
79065;DHT22;68469;51.502;7.462;2023-07-30T02:35:43;15.00;99.90
79065;DHT22;68469;51.502;7.462;2023-07-30T02:38:08;15.00;99.90
79065;DHT22;68469;51.502;7.462;2023-07-30T02:40:34;15.00;99.90
79065;DHT22;68469;51.502;7.462;2023-07-30T02:43:00;15.00;99.90
79065;DHT22;68469;51.502;7.462;2023-07-30T02:45:25;14.90;99.90
79065;DHT22;68469;51.502;7.462;2023-07-30T02:47:51;14.90;99.90
79065;DHT22;68469;51.502;7.462;2023-07-30T02:50:17;14.90;99.90
79065;DHT22;68469;51.502;7.462;2023-07-30T02:52:42;15.00;99.90
79065;DHT22;68469;51.502;7.462;2023-07-30T02:55:08;14.90;99.90
79065;DHT22;68469;51.502;7.462;2023-07-30T02:57:34;14.90;99.90
79065;DHT22;68469;51.502;7.462;2023-07-30T02:59:59;14.90;99.90
79065;DHT22;68469;51.502;7.462;2023-07-30T03:02:25;14.90;99.90
79065;DHT22;68469;51.502;7.462;2023-07-30T03:04:50;14.90;99.90
79065;DHT22;68469;51.502;7.462;2023-07-30T03:07:16;14.90;99.90
79065;DHT22;68469;51.502;7.462;2023-07-30T03:09:42;14.90;99.90
79065;DHT22;68469;51.502;7.462;2023-07-30T03:12:08;14.90;99.90
79065;DHT22;68469;51.502;7.462;2023-07-30T03:14:34;14.80;99.90
79065;DHT22;68469;51.502;7.462;2023-07-30T03:16:59;14.80;99.90
79065;DHT22;68469;51.502;7.462;2023-07-30T03:19:25;14.80;99.90
79065;DHT22;68469;51.502;7.462;2023-07-30T03:21:50;14.80;99.90
79065;DHT22;68469;51.502;7.462;2023-07-30T03:24:16;14.70;99.90
79065;DHT22;68469;51.502;7.462;2023-07-30T03:26:41;14.70;99.90
79065;DHT22;68469;51.502;7.462;2023-07-30T03:29:07;14.70;99.90
79065;DHT22;68469;51.502;7.462;2023-07-30T03:31:33;14.70;99.90
79065;DHT22;68469;51.502;7.462;2023-07-30T03:33:58;14.70;99.90
79065;DHT22;68469;51.502;7.462;2023-07-30T03:36:24;14.70;99.90
79065;DHT22;68469;51.502;7.462;2023-07-30T03:38:49;14.70;99.90
79065;DHT22;68469;51.502;7.462;2023-07-30T03:41:15;14.70;99.90
79065;DHT22;68469;51.502;7.462;2023-07-30T03:43:40;14.60;99.90
79065;DHT22;68469;51.502;7.462;2023-07-30T03:46:06;14.70;99.90
79065;DHT22;68469;51.502;7.462;2023-07-30T03:48:31;14.60;99.90
79065;DHT22;68469;51.502;7.462;2023-07-30T03:50:57;14.60;99.90
79065;DHT22;68469;51.502;7.462;2023-07-30T03:53:23;14.60;99.90
79065;DHT22;68469;51.502;7.462;2023-07-30T03:55:48;14.60;99.90
79065;DHT22;68469;51.502;7.462;2023-07-30T03:58:14;14.60;99.90
79065;DHT22;68469;51.502;7.462;2023-07-30T04:00:40;14.60;99.90
79065;DHT22;68469;51.502;7.462;2023-07-30T04:03:05;14.60;99.90
79065;DHT22;68469;51.502;7.462;2023-07-30T04:05:31;14.60;99.90
79065;DHT22;68469;51.502;7.462;2023-07-30T04:07:57;14.60;99.90
79065;DHT22;68469;51.502;7.462;2023-07-30T04:10:23;14.50;99.90
79065;DHT22;68469;51.502;7.462;2023-07-30T04:12:48;14.60;99.90
79065;DHT22;68469;51.502;7.462;2023-07-30T04:15:15;14.60;99.90
79065;DHT22;68469;51.502;7.462;2023-07-30T04:17:41;14.60;99.90
79065;DHT22;68469;51.502;7.462;2023-07-30T04:20:08;14.60;99.90
79065;DHT22;68469;51.502;7.462;2023-07-30T04:22:38;14.60;99.90
79065;DHT22;68469;51.502;7.462;2023-07-30T04:25:04;14.60;99.90
79065;DHT22;68469;51.502;7.462;2023-07-30T04:27:30;14.60;99.90
79065;DHT22;68469;51.502;7.462;2023-07-30T04:29:55;14.60;99.90
79065;DHT22;68469;51.502;7.462;2023-07-30T04:32:21;14.60;99.90
79065;DHT22;68469;51.502;7.462;2023-07-30T04:34:46;14.70;99.90
79065;DHT22;68469;51.502;7.462;2023-07-30T04:37:12;14.70;99.90
79065;DHT22;68469;51.502;7.462;2023-07-30T04:39:38;14.70;99.90
79065;DHT22;68469;51.502;7.462;2023-07-30T04:42:04;14.80;99.90
79065;DHT22;68469;51.502;7.462;2023-07-30T04:44:29;14.80;99.90
79065;DHT22;68469;51.502;7.462;2023-07-30T04:46:55;14.80;99.90
79065;DHT22;68469;51.502;7.462;2023-07-30T04:49:21;14.90;99.90
79065;DHT22;68469;51.502;7.462;2023-07-30T04:51:46;14.90;99.90
79065;DHT22;68469;51.502;7.462;2023-07-30T04:54:12;15.00;99.90
79065;DHT22;68469;51.502;7.462;2023-07-30T04:56:37;15.00;99.90
79065;DHT22;68469;51.502;7.462;2023-07-30T04:59:03;15.10;99.90
79065;DHT22;68469;51.502;7.462;2023-07-30T05:01:29;15.20;99.90
79065;DHT22;68469;51.502;7.462;2023-07-30T05:03:54;15.40;99.90
79065;DHT22;68469;51.502;7.462;2023-07-30T05:06:20;15.50;99.90
79065;DHT22;68469;51.502;7.462;2023-07-30T05:08:46;15.60;99.90
79065;DHT22;68469;51.502;7.462;2023-07-30T05:11:11;15.80;99.90
79065;DHT22;68469;51.502;7.462;2023-07-30T05:13:37;16.00;99.90
79065;DHT22;68469;51.502;7.462;2023-07-30T05:16:03;16.20;99.90
79065;DHT22;68469;51.502;7.462;2023-07-30T05:18:28;16.40;99.90
79065;DHT22;68469;51.502;7.462;2023-07-30T05:20:55;16.50;99.90
79065;DHT22;68469;51.502;7.462;2023-07-30T05:23:20;16.60;99.90
79065;DHT22;68469;51.502;7.462;2023-07-30T05:25:46;16.60;99.90
79065;DHT22;68469;51.502;7.462;2023-07-30T05:28:13;16.60;99.90
79065;DHT22;68469;51.502;7.462;2023-07-30T05:30:38;16.60;99.90
79065;DHT22;68469;51.502;7.462;2023-07-30T05:33:04;16.60;99.90
79065;DHT22;68469;51.502;7.462;2023-07-30T05:35:30;16.60;99.90
79065;DHT22;68469;51.502;7.462;2023-07-30T05:37:56;16.50;99.90
79065;DHT22;68469;51.502;7.462;2023-07-30T05:40:22;16.50;99.90
79065;DHT22;68469;51.502;7.462;2023-07-30T05:42:47;16.50;99.90
79065;DHT22;68469;51.502;7.462;2023-07-30T05:45:13;16.40;99.90
79065;DHT22;68469;51.502;7.462;2023-07-30T05:47:39;16.40;99.90
79065;DHT22;68469;51.502;7.462;2023-07-30T05:50:07;16.40;99.90
79065;DHT22;68469;51.502;7.462;2023-07-30T05:52:33;16.40;99.90
79065;DHT22;68469;51.502;7.462;2023-07-30T05:54:58;16.40;99.90
79065;DHT22;68469;51.502;7.462;2023-07-30T05:57:24;16.40;99.90
79065;DHT22;68469;51.502;7.462;2023-07-30T05:59:50;16.40;99.90
79065;DHT22;68469;51.502;7.462;2023-07-30T06:02:16;16.40;99.90
79065;DHT22;68469;51.502;7.462;2023-07-30T06:04:42;16.40;99.90
79065;DHT22;68469;51.502;7.462;2023-07-30T06:09:39;16.40;99.90
79065;DHT22;68469;51.502;7.462;2023-07-30T06:12:05;16.40;99.90
79065;DHT22;68469;51.502;7.462;2023-07-30T06:14:31;16.40;99.90
79065;DHT22;68469;51.502;7.462;2023-07-30T06:16:56;16.40;99.90
79065;DHT22;68469;51.502;7.462;2023-07-30T06:19:22;16.40;99.90
79065;DHT22;68469;51.502;7.462;2023-07-30T06:21:48;16.40;99.90
79065;DHT22;68469;51.502;7.462;2023-07-30T06:24:13;16.40;99.90
79065;DHT22;68469;51.502;7.462;2023-07-30T06:26:39;16.40;99.90
79065;DHT22;68469;51.502;7.462;2023-07-30T06:29:04;16.40;99.90
79065;DHT22;68469;51.502;7.462;2023-07-30T06:31:30;16.50;99.90
79065;DHT22;68469;51.502;7.462;2023-07-30T06:33:56;16.50;99.90
79065;DHT22;68469;51.502;7.462;2023-07-30T06:36:21;16.50;99.90
79065;DHT22;68469;51.502;7.462;2023-07-30T06:38:47;16.50;99.90
79065;DHT22;68469;51.502;7.462;2023-07-30T06:41:13;16.50;99.90
79065;DHT22;68469;51.502;7.462;2023-07-30T06:43:39;16.50;99.90
79065;DHT22;68469;51.502;7.462;2023-07-30T06:46:04;16.50;99.90
79065;DHT22;68469;51.502;7.462;2023-07-30T06:48:30;16.60;99.90
79065;DHT22;68469;51.502;7.462;2023-07-30T06:50:56;16.60;99.90
79065;DHT22;68469;51.502;7.462;2023-07-30T06:53:21;16.60;99.90
79065;DHT22;68469;51.502;7.462;2023-07-30T06:55:47;16.60;99.90
79065;DHT22;68469;51.502;7.462;2023-07-30T06:58:13;16.60;99.90
79065;DHT22;68469;51.502;7.462;2023-07-30T07:00:39;16.60;99.90
79065;DHT22;68469;51.502;7.462;2023-07-30T07:03:05;16.60;99.90
79065;DHT22;68469;51.502;7.462;2023-07-30T07:05:30;16.60;99.90
79065;DHT22;68469;51.502;7.462;2023-07-30T07:07:56;16.60;99.90
79065;DHT22;68469;51.502;7.462;2023-07-30T07:10:21;16.60;99.90
79065;DHT22;68469;51.502;7.462;2023-07-30T07:12:47;16.60;99.90
79065;DHT22;68469;51.502;7.462;2023-07-30T07:15:13;16.60;99.90
79065;DHT22;68469;51.502;7.462;2023-07-30T07:17:39;16.50;99.90
79065;DHT22;68469;51.502;7.462;2023-07-30T07:20:05;16.50;99.90
79065;DHT22;68469;51.502;7.462;2023-07-30T07:22:33;16.50;99.90
79065;DHT22;68469;51.502;7.462;2023-07-30T07:24:58;16.50;99.90
79065;DHT22;68469;51.502;7.462;2023-07-30T07:27:25;16.50;99.90
79065;DHT22;68469;51.502;7.462;2023-07-30T07:29:51;16.60;99.90
79065;DHT22;68469;51.502;7.462;2023-07-30T07:32:18;16.60;99.90
79065;DHT22;68469;51.502;7.462;2023-07-30T07:34:50;16.70;99.90
79065;DHT22;68469;51.502;7.462;2023-07-30T07:37:16;16.70;99.90
79065;DHT22;68469;51.502;7.462;2023-07-30T07:39:44;16.70;99.90
79065;DHT22;68469;51.502;7.462;2023-07-30T07:42:10;16.70;99.90
79065;DHT22;68469;51.502;7.462;2023-07-30T07:44:36;16.70;99.90
79065;DHT22;68469;51.502;7.462;2023-07-30T07:47:02;16.70;99.90
79065;DHT22;68469;51.502;7.462;2023-07-30T07:49:27;16.80;99.90
79065;DHT22;68469;51.502;7.462;2023-07-30T07:51:53;16.80;99.90
79065;DHT22;68469;51.502;7.462;2023-07-30T07:54:19;16.80;99.90
79065;DHT22;68469;51.502;7.462;2023-07-30T07:56:44;16.90;99.90
79065;DHT22;68469;51.502;7.462;2023-07-30T07:59:10;16.90;99.90
79065;DHT22;68469;51.502;7.462;2023-07-30T08:01:35;17.00;99.90
79065;DHT22;68469;51.502;7.462;2023-07-30T08:04:02;17.00;99.90
79065;DHT22;68469;51.502;7.462;2023-07-30T08:06:27;17.10;99.90
79065;DHT22;68469;51.502;7.462;2023-07-30T08:08:53;17.20;99.90
79065;DHT22;68469;51.502;7.462;2023-07-30T08:11:19;17.30;99.90
79065;DHT22;68469;51.502;7.462;2023-07-30T08:13:44;17.40;99.90
79065;DHT22;68469;51.502;7.462;2023-07-30T08:16:11;17.40;99.90
79065;DHT22;68469;51.502;7.462;2023-07-30T08:18:37;17.50;99.90
79065;DHT22;68469;51.502;7.462;2023-07-30T08:21:03;17.50;99.90
79065;DHT22;68469;51.502;7.462;2023-07-30T08:23:28;17.50;99.90
79065;DHT22;68469;51.502;7.462;2023-07-30T08:25:54;17.40;99.90
79065;DHT22;68469;51.502;7.462;2023-07-30T08:28:20;17.40;99.90
79065;DHT22;68469;51.502;7.462;2023-07-30T08:30:46;17.40;99.90
79065;DHT22;68469;51.502;7.462;2023-07-30T08:33:11;17.50;99.90
79065;DHT22;68469;51.502;7.462;2023-07-30T08:35:37;17.60;99.90
79065;DHT22;68469;51.502;7.462;2023-07-30T08:38:03;17.70;99.90
79065;DHT22;68469;51.502;7.462;2023-07-30T08:40:28;17.80;99.90
79065;DHT22;68469;51.502;7.462;2023-07-30T08:42:54;17.90;99.90
79065;DHT22;68469;51.502;7.462;2023-07-30T08:45:20;18.00;99.90
79065;DHT22;68469;51.502;7.462;2023-07-30T08:47:47;18.10;99.90
79065;DHT22;68469;51.502;7.462;2023-07-30T08:50:13;18.20;99.90
79065;DHT22;68469;51.502;7.462;2023-07-30T08:52:39;18.20;98.80
79065;DHT22;68469;51.502;7.462;2023-07-30T08:55:06;18.30;97.10
79065;DHT22;68469;51.502;7.462;2023-07-30T08:57:33;18.40;97.60
79065;DHT22;68469;51.502;7.462;2023-07-30T09:00:04;18.30;97.50
79065;DHT22;68469;51.502;7.462;2023-07-30T09:02:52;18.40;96.60
79065;DHT22;68469;51.502;7.462;2023-07-30T09:05:20;18.60;97.60
79065;DHT22;68469;51.502;7.462;2023-07-30T09:07:46;18.80;98.40
79065;DHT22;68469;51.502;7.462;2023-07-30T09:10:13;19.10;97.30
79065;DHT22;68469;51.502;7.462;2023-07-30T09:12:39;19.30;95.60
79065;DHT22;68469;51.502;7.462;2023-07-30T09:15:06;19.50;95.60
79065;DHT22;68469;51.502;7.462;2023-07-30T09:17:35;19.70;94.80
79065;DHT22;68469;51.502;7.462;2023-07-30T09:20:02;19.90;93.10
79065;DHT22;68469;51.502;7.462;2023-07-30T09:22:33;20.10;91.10
79065;DHT22;68469;51.502;7.462;2023-07-30T09:25:02;20.20;91.40
79065;DHT22;68469;51.502;7.462;2023-07-30T09:27:28;20.30;89.20
79065;DHT22;68469;51.502;7.462;2023-07-30T09:29:56;20.60;90.30
79065;DHT22;68469;51.502;7.462;2023-07-30T09:32:27;20.70;90.70
79065;DHT22;68469;51.502;7.462;2023-07-30T09:34:53;20.80;89.20
79065;DHT22;68469;51.502;7.462;2023-07-30T09:37:19;20.90;87.30
79065;DHT22;68469;51.502;7.462;2023-07-30T09:39:47;21.10;86.00
79065;DHT22;68469;51.502;7.462;2023-07-30T09:42:13;21.20;82.60
79065;DHT22;68469;51.502;7.462;2023-07-30T09:44:39;21.30;80.80
79065;DHT22;68469;51.502;7.462;2023-07-30T09:47:08;21.40;82.30
79065;DHT22;68469;51.502;7.462;2023-07-30T09:49:35;21.30;83.00
79065;DHT22;68469;51.502;7.462;2023-07-30T09:52:03;21.40;82.90
79065;DHT22;68469;51.502;7.462;2023-07-30T09:54:29;21.50;84.70
79065;DHT22;68469;51.502;7.462;2023-07-30T09:56:56;21.80;82.50
79065;DHT22;68469;51.502;7.462;2023-07-30T09:59:21;22.20;81.70
79065;DHT22;68469;51.502;7.462;2023-07-30T10:01:48;22.50;78.10
79065;DHT22;68469;51.502;7.462;2023-07-30T10:04:15;22.80;77.80
79065;DHT22;68469;51.502;7.462;2023-07-30T10:06:52;23.00;75.40
79065;DHT22;68469;51.502;7.462;2023-07-30T10:09:20;23.30;74.60
79065;DHT22;68469;51.502;7.462;2023-07-30T10:11:48;23.70;72.80
79065;DHT22;68469;51.502;7.462;2023-07-30T10:14:17;23.90;70.40
79065;DHT22;68469;51.502;7.462;2023-07-30T10:16:55;24.10;68.50
79065;DHT22;68469;51.502;7.462;2023-07-30T10:19:28;24.40;63.80
79065;DHT22;68469;51.502;7.462;2023-07-30T10:24:41;24.90;64.40
79065;DHT22;68469;51.502;7.462;2023-07-30T10:27:09;25.20;62.70
79065;DHT22;68469;51.502;7.462;2023-07-30T10:29:35;25.20;61.00
79065;DHT22;68469;51.502;7.462;2023-07-30T10:32:02;25.20;59.80
79065;DHT22;68469;51.502;7.462;2023-07-30T10:34:44;25.40;61.60
79065;DHT22;68469;51.502;7.462;2023-07-30T10:37:10;25.70;60.20
79065;DHT22;68469;51.502;7.462;2023-07-30T10:39:36;25.80;59.10
79065;DHT22;68469;51.502;7.462;2023-07-30T10:42:01;25.90;57.20
79065;DHT22;68469;51.502;7.462;2023-07-30T10:44:28;26.20;57.30
79065;DHT22;68469;51.502;7.462;2023-07-30T10:46:57;26.70;57.70
79065;DHT22;68469;51.502;7.462;2023-07-30T10:49:23;26.90;56.00
79065;DHT22;68469;51.502;7.462;2023-07-30T10:51:52;27.00;55.60
79065;DHT22;68469;51.502;7.462;2023-07-30T10:54:18;27.10;55.20
79065;DHT22;68469;51.502;7.462;2023-07-30T10:56:44;27.20;52.60
79065;DHT22;68469;51.502;7.462;2023-07-30T10:59:11;27.60;52.70
79065;DHT22;68469;51.502;7.462;2023-07-30T11:01:38;27.40;53.80
79065;DHT22;68469;51.502;7.462;2023-07-30T11:04:20;28.00;54.10
79065;DHT22;68469;51.502;7.462;2023-07-30T11:06:50;28.40;52.50
79065;DHT22;68469;51.502;7.462;2023-07-30T11:09:26;28.10;51.50
79065;DHT22;68469;51.502;7.462;2023-07-30T11:11:54;27.60;52.60
79065;DHT22;68469;51.502;7.462;2023-07-30T11:14:22;27.00;52.70
79065;DHT22;68469;51.502;7.462;2023-07-30T11:16:49;26.30;53.30
79065;DHT22;68469;51.502;7.462;2023-07-30T11:19:16;25.60;55.10
79065;DHT22;68469;51.502;7.462;2023-07-30T11:21:46;24.90;59.00
79065;DHT22;68469;51.502;7.462;2023-07-30T11:24:19;24.30;58.50
79065;DHT22;68469;51.502;7.462;2023-07-30T11:26:45;23.90;58.80
79065;DHT22;68469;51.502;7.462;2023-07-30T11:29:17;23.90;60.80
79065;DHT22;68469;51.502;7.462;2023-07-30T11:31:44;25.50;57.20
79065;DHT22;68469;51.502;7.462;2023-07-30T11:34:10;26.80;57.90
79065;DHT22;68469;51.502;7.462;2023-07-30T11:36:37;28.90;51.50
79065;DHT22;68469;51.502;7.462;2023-07-30T11:39:03;30.40;48.20
79065;DHT22;68469;51.502;7.462;2023-07-30T11:41:29;31.60;45.60
79065;DHT22;68469;51.502;7.462;2023-07-30T11:43:55;33.70;42.30
79065;DHT22;68469;51.502;7.462;2023-07-30T11:46:21;35.40;40.20
79065;DHT22;68469;51.502;7.462;2023-07-30T11:48:49;35.40;37.50
79065;DHT22;68469;51.502;7.462;2023-07-30T11:51:26;34.80;37.80
79065;DHT22;68469;51.502;7.462;2023-07-30T11:54:00;33.70;38.00
79065;DHT22;68469;51.502;7.462;2023-07-30T11:56:32;33.10;41.20
79065;DHT22;68469;51.502;7.462;2023-07-30T11:59:05;32.20;41.40
79065;DHT22;68469;51.502;7.462;2023-07-30T12:01:33;31.20;43.10
79065;DHT22;68469;51.502;7.462;2023-07-30T12:04:04;30.10;45.70
79065;DHT22;68469;51.502;7.462;2023-07-30T12:06:41;28.90;46.20
79065;DHT22;68469;51.502;7.462;2023-07-30T12:09:18;28.00;49.60
79065;DHT22;68469;51.502;7.462;2023-07-30T12:14:44;26.90;50.70
79065;DHT22;68469;51.502;7.462;2023-07-30T12:17:10;26.50;50.20
79065;DHT22;68469;51.502;7.462;2023-07-30T12:19:36;26.30;54.50
79065;DHT22;68469;51.502;7.462;2023-07-30T12:22:02;26.10;55.20
79065;DHT22;68469;51.502;7.462;2023-07-30T12:24:28;25.80;54.20
79065;DHT22;68469;51.502;7.462;2023-07-30T12:26:53;25.60;54.90
79065;DHT22;68469;51.502;7.462;2023-07-30T12:29:19;25.40;56.30
79065;DHT22;68469;51.502;7.462;2023-07-30T12:31:45;25.20;54.70
79065;DHT22;68469;51.502;7.462;2023-07-30T12:34:11;25.10;57.50
79065;DHT22;68469;51.502;7.462;2023-07-30T12:36:37;24.90;56.40
79065;DHT22;68469;51.502;7.462;2023-07-30T12:39:02;25.50;55.60
79065;DHT22;68469;51.502;7.462;2023-07-30T12:41:28;25.90;53.30
79065;DHT22;68469;51.502;7.462;2023-07-30T12:43:55;25.90;54.90
79065;DHT22;68469;51.502;7.462;2023-07-30T12:46:24;25.80;52.40
79065;DHT22;68469;51.502;7.462;2023-07-30T12:48:52;25.60;54.50
79065;DHT22;68469;51.502;7.462;2023-07-30T12:51:18;25.30;54.80
79065;DHT22;68469;51.502;7.462;2023-07-30T12:53:44;25.10;56.80
79065;DHT22;68469;51.502;7.462;2023-07-30T12:56:09;24.90;56.70
79065;DHT22;68469;51.502;7.462;2023-07-30T12:58:35;24.70;55.90
79065;DHT22;68469;51.502;7.462;2023-07-30T13:01:02;24.50;55.50
79065;DHT22;68469;51.502;7.462;2023-07-30T13:03:28;24.50;55.20
79065;DHT22;68469;51.502;7.462;2023-07-30T13:05:54;24.50;56.90
79065;DHT22;68469;51.502;7.462;2023-07-30T13:08:20;24.60;56.30
79065;DHT22;68469;51.502;7.462;2023-07-30T13:10:46;24.50;56.20
79065;DHT22;68469;51.502;7.462;2023-07-30T13:13:11;24.50;58.20
79065;DHT22;68469;51.502;7.462;2023-07-30T13:15:37;24.50;56.00
79065;DHT22;68469;51.502;7.462;2023-07-30T13:18:03;24.50;56.80
79065;DHT22;68469;51.502;7.462;2023-07-30T13:20:29;24.40;57.30
79065;DHT22;68469;51.502;7.462;2023-07-30T13:22:56;24.30;56.80
79065;DHT22;68469;51.502;7.462;2023-07-30T13:25:22;24.20;58.00
79065;DHT22;68469;51.502;7.462;2023-07-30T13:27:48;24.20;56.90
79065;DHT22;68469;51.502;7.462;2023-07-30T13:30:14;24.20;58.50
79065;DHT22;68469;51.502;7.462;2023-07-30T13:32:40;24.10;55.90
79065;DHT22;68469;51.502;7.462;2023-07-30T13:35:05;24.00;56.90
79065;DHT22;68469;51.502;7.462;2023-07-30T13:37:31;24.10;58.00
79065;DHT22;68469;51.502;7.462;2023-07-30T13:39:56;24.10;55.20
79065;DHT22;68469;51.502;7.462;2023-07-30T13:42:22;24.10;55.70
79065;DHT22;68469;51.502;7.462;2023-07-30T13:44:48;24.00;56.50
79065;DHT22;68469;51.502;7.462;2023-07-30T13:47:13;23.90;54.60
79065;DHT22;68469;51.502;7.462;2023-07-30T13:49:39;23.70;52.60
79065;DHT22;68469;51.502;7.462;2023-07-30T13:52:05;23.80;53.00
79065;DHT22;68469;51.502;7.462;2023-07-30T13:54:30;23.70;52.50
79065;DHT22;68469;51.502;7.462;2023-07-30T13:56:56;23.70;53.40
79065;DHT22;68469;51.502;7.462;2023-07-30T13:59:22;23.70;54.60
79065;DHT22;68469;51.502;7.462;2023-07-30T14:01:47;23.70;56.40
79065;DHT22;68469;51.502;7.462;2023-07-30T14:04:13;23.60;55.80
79065;DHT22;68469;51.502;7.462;2023-07-30T14:06:38;23.60;56.60
79065;DHT22;68469;51.502;7.462;2023-07-30T14:09:04;23.60;55.00
79065;DHT22;68469;51.502;7.462;2023-07-30T14:11:30;23.60;57.30
79065;DHT22;68469;51.502;7.462;2023-07-30T14:13:55;23.60;54.80
79065;DHT22;68469;51.502;7.462;2023-07-30T14:16:23;23.50;57.90
79065;DHT22;68469;51.502;7.462;2023-07-30T14:18:49;23.30;56.50
79065;DHT22;68469;51.502;7.462;2023-07-30T14:21:14;23.10;58.20
79065;DHT22;68469;51.502;7.462;2023-07-30T14:23:40;22.90;57.80
79065;DHT22;68469;51.502;7.462;2023-07-30T14:26:05;22.80;58.50
79065;DHT22;68469;51.502;7.462;2023-07-30T14:28:32;22.80;58.30
79065;DHT22;68469;51.502;7.462;2023-07-30T14:30:57;22.90;59.60
79065;DHT22;68469;51.502;7.462;2023-07-30T14:33:23;22.90;59.30
79065;DHT22;68469;51.502;7.462;2023-07-30T14:35:49;23.00;59.70
79065;DHT22;68469;51.502;7.462;2023-07-30T14:38:15;23.00;58.20
79065;DHT22;68469;51.502;7.462;2023-07-30T14:40:42;22.90;58.30
79065;DHT22;68469;51.502;7.462;2023-07-30T14:43:08;22.90;58.30
79065;DHT22;68469;51.502;7.462;2023-07-30T14:45:34;22.90;58.00
79065;DHT22;68469;51.502;7.462;2023-07-30T14:47:59;22.80;59.00
79065;DHT22;68469;51.502;7.462;2023-07-30T14:50:26;22.70;60.30
79065;DHT22;68469;51.502;7.462;2023-07-30T14:52:52;22.60;63.30
79065;DHT22;68469;51.502;7.462;2023-07-30T14:55:18;22.40;61.60
79065;DHT22;68469;51.502;7.462;2023-07-30T14:57:43;22.20;60.00
79065;DHT22;68469;51.502;7.462;2023-07-30T15:00:10;22.10;63.50
79065;DHT22;68469;51.502;7.462;2023-07-30T15:02:38;22.10;62.00
79065;DHT22;68469;51.502;7.462;2023-07-30T15:05:04;22.00;63.00
79065;DHT22;68469;51.502;7.462;2023-07-30T15:07:30;22.00;62.00
79065;DHT22;68469;51.502;7.462;2023-07-30T15:09:55;21.90;62.30
79065;DHT22;68469;51.502;7.462;2023-07-30T15:12:21;21.90;63.00
79065;DHT22;68469;51.502;7.462;2023-07-30T15:14:47;21.90;62.10
79065;DHT22;68469;51.502;7.462;2023-07-30T15:17:12;22.00;62.10
79065;DHT22;68469;51.502;7.462;2023-07-30T15:19:39;22.00;62.50
79065;DHT22;68469;51.502;7.462;2023-07-30T15:22:05;22.10;61.80
79065;DHT22;68469;51.502;7.462;2023-07-30T15:24:30;22.10;62.60
79065;DHT22;68469;51.502;7.462;2023-07-30T15:26:56;22.00;62.50
79065;DHT22;68469;51.502;7.462;2023-07-30T15:29:22;22.00;62.00
79065;DHT22;68469;51.502;7.462;2023-07-30T15:31:49;21.90;64.60
79065;DHT22;68469;51.502;7.462;2023-07-30T15:34:15;21.90;65.00
79065;DHT22;68469;51.502;7.462;2023-07-30T15:36:41;21.80;62.70
79065;DHT22;68469;51.502;7.462;2023-07-30T15:39:07;21.70;65.50